Time;durP1;ratioP1;P1;durP2;ratioP2;P2;SDS_P1;SDS_P2;PMS_P1;PMS_P2;Temp;Humidity;BMP_temperature;BMP_pressure;BME280_temperature;BME280_humidity;BME280_pressure;Samples;Min_cycle;Max_cycle;Signal;HPM_P1;HPM_P2
2022/09/24 00:01:27;;;;;;;11.43;6.93;;;10.20;99.90;;;;;;5029651;28;20858;-65
2022/09/24 00:03:56;;;;;;;11.00;6.87;;;10.20;99.90;;;;;;5031992;28;20902;-63
2022/09/24 00:06:22;;;;;;;9.20;6.60;;;10.20;99.90;;;;;;5010807;28;20789;-64
2022/09/24 00:08:50;;;;;;;12.90;6.67;;;10.20;99.90;;;;;;5031896;28;20707;-63
2022/09/24 00:11:18;;;;;;;19.00;7.73;;;10.20;99.90;;;;;;5007745;28;20824;-63
2022/09/24 00:13:44;;;;;;;10.23;7.33;;;10.20;99.90;;;;;;5030330;28;20470;-64
2022/09/24 00:16:13;;;;;;;12.20;7.47;;;10.20;99.90;;;;;;5027133;28;20908;-64
2022/09/24 00:18:39;;;;;;;13.10;7.87;;;10.20;99.90;;;;;;5030227;28;20183;-63
2022/09/24 00:21:18;;;;;;;10.83;7.00;;;10.20;99.90;;;;;;5029606;28;20438;-64
2022/09/24 00:23:47;;;;;;;14.37;6.83;;;10.10;99.90;;;;;;5022962;28;21003;-65
2022/09/24 00:28:58;;;;;;;9.87;6.63;;;10.10;99.90;;;;;;5021495;28;20577;-63
2022/09/24 00:31:24;;;;;;;9.13;7.10;;;10.10;99.90;;;;;;5025182;28;20426;-62
2022/09/24 00:33:51;;;;;;;10.33;6.10;;;10.10;99.90;;;;;;5031013;28;20541;-63
2022/09/24 00:36:18;;;;;;;7.63;6.20;;;10.10;99.90;;;;;;5031521;28;20421;-64
2022/09/24 00:38:46;;;;;;;13.83;7.00;;;10.10;99.90;;;;;;5021914;28;20611;-63
2022/09/24 00:41:12;;;;;;;6.90;6.07;;;10.10;99.90;;;;;;5027653;28;20823;-63
2022/09/24 00:43:38;;;;;;;10.37;6.73;;;10.10;99.90;;;;;;5008405;28;21034;-63
2022/09/24 00:46:34;;;;;;;9.27;6.23;;;10.10;99.90;;;;;;5002083;28;20258;-64
2022/09/24 00:49:04;;;;;;;8.23;5.77;;;10.10;99.90;;;;;;5026215;28;20192;-64
2022/09/24 00:51:32;;;;;;;10.93;5.97;;;10.20;99.90;;;;;;5026082;28;20794;-63
2022/09/24 00:54:04;;;;;;;9.43;6.23;;;10.20;99.90;;;;;;5030687;28;20422;-64
2022/09/24 00:56:35;;;;;;;8.80;6.33;;;10.20;99.90;;;;;;5013089;28;20413;-63
2022/09/24 00:59:02;;;;;;;7.80;5.90;;;10.20;99.90;;;;;;5012086;28;20504;-63
2022/09/24 01:01:29;;;;;;;7.03;5.90;;;10.20;99.90;;;;;;5014232;28;20530;-63
2022/09/24 01:03:57;;;;;;;10.20;6.47;;;10.20;99.90;;;;;;5020919;28;20484;-63
2022/09/24 01:06:26;;;;;;;9.40;6.00;;;10.20;99.90;;;;;;5027502;28;20517;-63
2022/09/24 01:08:55;;;;;;;8.83;6.20;;;10.20;99.90;;;;;;5013343;28;20418;-63
2022/09/24 01:11:32;;;;;;;8.03;5.93;;;10.20;99.90;;;;;;5021645;28;20536;-63
2022/09/24 01:14:13;;;;;;;7.13;6.23;;;10.20;99.90;;;;;;5023766;28;20515;-64
2022/09/24 01:17:04;;;;;;;7.70;6.30;;;10.20;99.90;;;;;;5026196;28;20874;-63
2022/09/24 01:20:08;;;;;;;11.93;7.10;;;10.20;99.90;;;;;;5027507;28;20419;-65
2022/09/24 01:22:36;;;;;;;10.83;6.50;;;10.20;99.90;;;;;;5020866;28;20461;-63
2022/09/24 01:25:14;;;;;;;8.13;5.90;;;10.20;99.90;;;;;;5013841;28;20557;-63
2022/09/24 01:27:58;;;;;;;8.17;6.03;;;10.20;99.90;;;;;;5010633;28;20498;-63
2022/09/24 01:30:24;;;;;;;7.03;6.33;;;10.20;99.90;;;;;;5029916;28;20445;-64
2022/09/24 01:33:02;;;;;;;10.63;6.00;;;10.20;99.90;;;;;;5008315;28;20471;-64
2022/09/24 01:35:43;;;;;;;7.40;5.40;;;10.20;99.90;;;;;;5028688;28;20421;-64
2022/09/24 01:38:29;;;;;;;8.17;5.87;;;10.20;99.90;;;;;;5029268;28;20454;-63
2022/09/24 01:40:58;;;;;;;9.73;5.73;;;10.20;99.90;;;;;;5017144;28;20496;-63
2022/09/24 01:43:26;;;;;;;9.10;5.40;;;10.20;99.90;;;;;;5020992;28;21272;-62
2022/09/24 01:45:59;;;;;;;7.67;5.37;;;10.10;99.90;;;;;;5008135;28;20489;-63
2022/09/24 01:48:25;;;;;;;9.43;6.00;;;10.20;99.90;;;;;;5005624;28;20492;-63
2022/09/24 01:50:56;;;;;;;9.50;5.80;;;10.10;99.90;;;;;;5035133;28;20506;-64
2022/09/24 01:53:29;;;;;;;7.30;5.60;;;10.10;99.90;;;;;;5024728;28;20845;-64
2022/09/24 01:56:07;;;;;;;7.57;5.80;;;10.10;99.90;;;;;;5016878;28;20438;-64
2022/09/24 01:58:39;;;;;;;12.37;5.30;;;10.10;99.90;;;;;;5028871;28;20419;-66
2022/09/24 02:01:12;;;;;;;10.23;6.50;;;10.10;99.90;;;;;;5022035;28;20434;-64
2022/09/24 02:03:47;;;;;;;8.40;6.07;;;10.20;99.90;;;;;;5028601;28;20504;-65
2022/09/24 02:06:21;;;;;;;7.43;6.30;;;10.20;99.90;;;;;;5027481;28;20430;-64
2022/09/24 02:08:48;;;;;;;8.23;5.70;;;10.20;99.90;;;;;;5022269;28;20418;-64
2022/09/24 02:11:20;;;;;;;8.47;6.07;;;10.20;99.90;;;;;;5028624;28;20792;-64
2022/09/24 02:14:10;;;;;;;9.90;6.30;;;10.20;99.90;;;;;;5021953;28;20425;-64
2022/09/24 02:16:41;;;;;;;6.73;5.70;;;10.20;99.90;;;;;;5023652;28;21257;-64
2022/09/24 02:19:11;;;;;;;9.03;6.60;;;10.20;99.90;;;;;;5022946;28;20437;-63
2022/09/24 02:21:38;;;;;;;9.97;6.03;;;10.20;99.90;;;;;;5010754;28;20790;-64
2022/09/24 02:24:18;;;;;;;6.50;5.60;;;10.20;99.90;;;;;;5027205;28;20454;-64
2022/09/24 02:26:44;;;;;;;6.93;5.77;;;10.20;99.90;;;;;;5021146;28;20525;-63
2022/09/24 02:29:10;;;;;;;9.90;6.10;;;10.20;99.90;;;;;;5011856;28;20469;-64
2022/09/24 02:31:48;;;;;;;9.33;5.90;;;10.20;99.90;;;;;;5025287;28;21005;-64
2022/09/24 02:34:20;;;;;;;8.53;5.73;;;10.20;99.90;;;;;;5029775;28;20517;-64
2022/09/24 02:36:48;;;;;;;10.23;6.20;;;10.20;99.90;;;;;;5026966;28;20514;-64
2022/09/24 02:39:16;;;;;;;10.43;6.33;;;10.20;99.90;;;;;;5023953;28;20487;-64
2022/09/24 02:41:45;;;;;;;12.33;7.03;;;10.20;99.90;;;;;;5025120;28;20477;-65
2022/09/24 02:44:11;;;;;;;11.37;7.40;;;10.20;99.90;;;;;;5026387;28;20469;-64
2022/09/24 02:46:40;;;;;;;8.67;6.87;;;10.20;99.90;;;;;;5024893;28;20438;-64
2022/09/24 02:49:07;;;;;;;8.10;6.43;;;10.20;99.90;;;;;;5029856;28;20168;-64
2022/09/24 02:51:32;;;;;;;11.87;7.40;;;10.20;99.90;;;;;;5029949;28;20449;-64
2022/09/24 02:54:00;;;;;;;10.50;6.70;;;10.10;99.90;;;;;;5030267;28;20492;-64
2022/09/24 02:56:26;;;;;;;9.80;6.70;;;10.10;99.90;;;;;;5027730;28;20176;-64
2022/09/24 02:58:52;;;;;;;7.80;6.60;;;10.10;99.90;;;;;;5029793;28;20442;-64
2022/09/24 03:01:18;;;;;;;11.33;7.57;;;10.10;99.90;;;;;;5031205;28;20646;-64
2022/09/24 03:03:44;;;;;;;9.33;7.20;;;10.10;99.90;;;;;;5024447;28;20532;-64
2022/09/24 03:06:12;;;;;;;8.43;6.83;;;10.10;99.90;;;;;;5017789;28;22443;-65
2022/09/24 03:08:38;;;;;;;9.53;7.20;;;10.20;99.90;;;;;;5031159;28;20608;-64
2022/09/24 03:11:04;;;;;;;8.63;6.37;;;10.20;99.90;;;;;;5033138;28;20403;-64
2022/09/24 03:13:29;;;;;;;13.63;7.87;;;10.20;99.90;;;;;;5018315;28;20441;-64
2022/09/24 03:15:55;;;;;;;11.50;7.50;;;10.20;99.90;;;;;;5033128;28;20175;-64
2022/09/24 03:18:21;;;;;;;12.10;6.97;;;10.20;99.90;;;;;;5027535;28;20218;-64
2022/09/24 03:20:56;;;;;;;10.77;6.87;;;10.30;99.90;;;;;;5029843;28;20190;-63
2022/09/24 03:23:22;;;;;;;10.70;6.60;;;10.20;99.90;;;;;;5013071;28;20188;-64
2022/09/24 03:25:48;;;;;;;10.27;6.50;;;10.30;99.90;;;;;;5029144;28;20435;-64
2022/09/24 03:28:13;;;;;;;10.63;6.63;;;10.30;99.90;;;;;;5023964;28;20216;-66
2022/09/24 03:33:23;;;;;;;11.53;6.70;;;10.30;99.90;;;;;;5016085;28;20270;-64
2022/09/24 03:35:48;;;;;;;9.23;6.57;;;10.20;99.90;;;;;;5017588;28;20859;-64
2022/09/24 03:38:14;;;;;;;9.37;6.87;;;10.30;99.90;;;;;;5019088;28;20184;-64
2022/09/24 03:40:39;;;;;;;9.90;6.57;;;10.30;99.90;;;;;;5029932;28;20630;-64
2022/09/24 03:43:05;;;;;;;8.60;6.90;;;10.30;99.90;;;;;;5029698;28;20199;-64
2022/09/24 03:45:30;;;;;;;13.63;7.07;;;10.30;99.90;;;;;;5030812;28;20200;-64
2022/09/24 03:47:56;;;;;;;8.90;7.30;;;10.40;99.90;;;;;;5027987;28;20681;-65
2022/09/24 03:50:22;;;;;;;11.37;6.90;;;10.40;99.90;;;;;;5031142;28;20183;-64
2022/09/24 03:52:48;;;;;;;9.10;7.20;;;10.40;99.90;;;;;;5031628;28;20693;-64
2022/09/24 03:55:13;;;;;;;11.27;7.00;;;10.40;99.90;;;;;;5032511;28;20402;-64
2022/09/24 03:57:39;;;;;;;9.50;7.37;;;10.40;99.90;;;;;;5027834;28;20690;-64
2022/09/24 04:00:05;;;;;;;11.27;7.10;;;10.40;99.90;;;;;;5030909;28;20206;-63
2022/09/24 04:02:30;;;;;;;10.00;7.00;;;10.40;99.90;;;;;;5026601;28;20212;-63
2022/09/24 04:04:56;;;;;;;10.23;7.43;;;10.40;99.90;;;;;;5010067;28;20827;-63
2022/09/24 04:07:21;;;;;;;13.80;8.47;;;10.40;99.90;;;;;;5026262;28;20269;-64
2022/09/24 04:09:47;;;;;;;9.50;7.50;;;10.40;99.90;;;;;;5030978;28;20176;-64
2022/09/24 04:12:13;;;;;;;10.90;8.37;;;10.40;99.90;;;;;;5023710;28;20279;-64
2022/09/24 04:14:39;;;;;;;15.23;9.03;;;10.40;99.90;;;;;;5021221;28;20747;-63
2022/09/24 04:17:05;;;;;;;10.73;7.50;;;10.40;99.90;;;;;;5029550;28;20446;-64
2022/09/24 04:19:33;;;;;;;10.63;7.40;;;10.40;99.90;;;;;;5024387;28;20242;-63
2022/09/24 04:21:58;;;;;;;8.43;7.00;;;10.40;99.90;;;;;;5031499;28;20196;-63
2022/09/24 04:24:24;;;;;;;10.53;7.43;;;10.40;99.90;;;;;;5031762;28;20465;-63
2022/09/24 04:26:50;;;;;;;12.80;8.00;;;10.40;99.90;;;;;;5029465;28;20267;-64
2022/09/24 04:29:15;;;;;;;12.40;8.30;;;10.50;99.90;;;;;;5031965;28;20225;-64
2022/09/24 04:31:41;;;;;;;15.60;9.17;;;10.50;99.90;;;;;;5027131;28;20202;-63
2022/09/24 04:34:08;;;;;;;14.73;10.90;;;10.60;99.90;;;;;;5022099;28;20294;-63
2022/09/24 04:36:34;;;;;;;15.30;11.00;;;10.60;99.90;;;;;;5031780;28;20254;-64
2022/09/24 04:39:00;;;;;;;14.57;11.20;;;10.60;99.90;;;;;;5030810;28;20497;-63
2022/09/24 04:41:25;;;;;;;13.40;9.70;;;10.60;99.90;;;;;;5026827;28;20179;-63
2022/09/24 04:43:51;;;;;;;12.40;8.00;;;10.60;99.90;;;;;;5024023;28;20239;-64
2022/09/24 04:46:17;;;;;;;11.37;8.30;;;10.70;99.90;;;;;;5029888;28;20179;-64
2022/09/24 04:48:43;;;;;;;11.77;8.30;;;10.60;99.90;;;;;;5021959;28;20222;-64
2022/09/24 04:51:09;;;;;;;12.73;7.90;;;10.60;99.90;;;;;;5022111;28;20432;-63
2022/09/24 04:53:36;;;;;;;14.73;8.03;;;10.60;99.90;;;;;;5020261;28;20194;-64
2022/09/24 04:56:03;;;;;;;9.57;7.10;;;10.60;99.90;;;;;;5030033;28;20195;-64
2022/09/24 04:58:29;;;;;;;10.63;7.97;;;10.50;99.90;;;;;;5026132;28;20437;-63
2022/09/24 05:00:55;;;;;;;8.83;7.47;;;10.50;99.90;;;;;;5014596;28;20432;-65
2022/09/24 05:03:20;;;;;;;10.37;7.23;;;10.40;99.90;;;;;;5019281;28;20614;-63
2022/09/24 05:05:47;;;;;;;10.80;7.80;;;10.40;99.90;;;;;;5021880;28;20701;-63
2022/09/24 05:08:13;;;;;;;10.93;7.73;;;10.40;99.90;;;;;;5024987;28;20677;-63
2022/09/24 05:10:38;;;;;;;10.83;7.63;;;10.30;99.90;;;;;;5029812;28;20462;-64
2022/09/24 05:13:04;;;;;;;11.30;7.97;;;10.30;99.90;;;;;;5021965;28;20485;-63
2022/09/24 05:15:30;;;;;;;12.53;8.10;;;10.30;99.90;;;;;;5011484;28;20215;-63
2022/09/24 05:17:56;;;;;;;13.00;7.50;;;10.30;99.90;;;;;;5028926;28;20172;-64
2022/09/24 05:20:22;;;;;;;12.93;8.67;;;10.30;99.90;;;;;;5017198;28;20969;-64
2022/09/24 05:22:49;;;;;;;12.73;7.23;;;10.30;99.90;;;;;;5020196;28;20550;-64
2022/09/24 05:25:16;;;;;;;10.10;7.80;;;10.30;99.90;;;;;;5011258;28;20530;-63
2022/09/24 05:27:47;;;;;;;9.93;7.70;;;10.30;99.90;;;;;;5014240;28;20439;-63
2022/09/24 05:30:13;;;;;;;8.70;7.27;;;10.30;99.90;;;;;;5027839;28;20875;-64
2022/09/24 05:32:39;;;;;;;9.47;7.70;;;10.30;99.90;;;;;;5025253;28;20545;-64
2022/09/24 05:35:07;;;;;;;9.70;7.83;;;10.30;99.90;;;;;;5013228;28;20852;-64
2022/09/24 05:37:33;;;;;;;12.83;7.63;;;10.30;99.90;;;;;;5022865;28;20535;-64
2022/09/24 05:40:46;;;;;;;10.40;8.00;;;10.30;99.90;;;;;;5027007;28;20430;-64
2022/09/24 05:42:45;;;;;;;9.40;7.80;;;10.30;99.90;;;;;;5017453;28;20497;-63
2022/09/24 05:45:11;;;;;;;12.17;8.30;;;10.40;99.90;;;;;;5027338;28;21099;-65
2022/09/24 05:47:37;;;;;;;11.10;7.90;;;10.40;99.90;;;;;;5028511;28;20459;-63
2022/09/24 05:50:02;;;;;;;14.40;10.00;;;10.40;99.90;;;;;;5021626;28;20181;-62
2022/09/24 05:52:28;;;;;;;12.83;8.87;;;10.40;99.90;;;;;;5020997;28;20234;-62
2022/09/24 05:54:54;;;;;;;14.13;9.27;;;10.40;99.90;;;;;;5016546;28;20179;-63
2022/09/24 05:57:19;;;;;;;10.47;8.50;;;10.40;99.90;;;;;;5019798;28;20665;-64
2022/09/24 05:59:45;;;;;;;13.47;8.93;;;10.50;99.90;;;;;;5030198;28;20705;-63
2022/09/24 06:02:11;;;;;;;11.70;9.00;;;10.50;99.90;;;;;;5024991;28;20200;-63
2022/09/24 06:04:36;;;;;;;14.53;11.30;;;10.40;99.90;;;;;;5021207;28;20204;-63
2022/09/24 06:07:02;;;;;;;20.43;10.80;;;10.50;99.90;;;;;;5009287;28;20658;-64
2022/09/24 06:09:27;;;;;;;12.63;9.87;;;10.50;99.90;;;;;;5030175;28;20253;-63
2022/09/24 06:11:53;;;;;;;15.10;9.60;;;10.60;99.90;;;;;;5026916;28;20708;-63
2022/09/24 06:14:19;;;;;;;13.23;9.03;;;10.60;99.90;;;;;;5028029;28;20659;-63
2022/09/24 06:16:44;;;;;;;12.13;8.57;;;10.60;99.90;;;;;;5010219;28;20184;-63
2022/09/24 06:19:10;;;;;;;14.80;9.10;;;10.70;99.90;;;;;;5020124;28;20183;-63
2022/09/24 06:21:36;;;;;;;16.93;9.47;;;10.60;99.90;;;;;;5004899;28;20233;-63
2022/09/24 06:24:01;;;;;;;14.73;8.80;;;10.60;99.90;;;;;;5027307;28;20210;-63
2022/09/24 06:26:27;;;;;;;11.87;8.40;;;10.60;99.90;;;;;;5029433;28;20172;-63
2022/09/24 06:28:53;;;;;;;33.00;20.93;;;10.60;99.90;;;;;;5009873;28;20272;-63
2022/09/24 06:31:19;;;;;;;19.30;11.93;;;10.60;99.90;;;;;;5032248;28;20434;-63
2022/09/24 06:33:45;;;;;;;12.73;10.17;;;10.60;99.90;;;;;;5024615;28;20285;-64
2022/09/24 06:36:10;;;;;;;13.13;9.50;;;10.60;99.90;;;;;;5028447;28;20414;-63
2022/09/24 06:38:39;;;;;;;14.13;9.67;;;10.60;99.90;;;;;;5018875;28;20184;-63
2022/09/24 06:41:05;;;;;;;14.77;9.07;;;10.60;99.90;;;;;;5018315;28;20192;-63
2022/09/24 06:43:33;;;;;;;13.17;9.40;;;10.60;99.90;;;;;;5031894;28;20427;-63
2022/09/24 06:45:59;;;;;;;13.90;9.80;;;10.50;99.90;;;;;;5029315;28;20863;-63
2022/09/24 06:48:25;;;;;;;14.60;9.40;;;10.50;99.90;;;;;;5028183;28;20510;-62
2022/09/24 06:50:52;;;;;;;17.23;10.27;;;10.50;99.90;;;;;;5033377;28;20406;-63
2022/09/24 06:53:18;;;;;;;11.93;9.50;;;10.50;99.90;;;;;;5033271;28;20437;-63
2022/09/24 06:55:43;;;;;;;15.90;11.87;;;10.60;99.90;;;;;;5033001;28;20434;-63
2022/09/24 06:58:14;;;;;;;14.90;10.37;;;10.60;99.90;;;;;;5024989;28;20303;-64
2022/09/24 07:00:41;;;;;;;18.90;11.40;;;10.60;99.90;;;;;;5032867;28;20182;-65
2022/09/24 07:03:14;;;;;;;13.77;10.00;;;10.60;99.90;;;;;;5026712;28;20450;-63
2022/09/24 07:05:39;;;;;;;18.17;9.90;;;10.60;99.90;;;;;;5028827;28;20466;-63
2022/09/24 07:08:05;;;;;;;19.27;10.93;;;10.70;99.90;;;;;;5032585;28;20417;-63
2022/09/24 07:10:31;;;;;;;15.20;10.23;;;10.70;99.90;;;;;;5032524;28;20620;-63
2022/09/24 07:12:56;;;;;;;12.53;10.60;;;10.70;99.90;;;;;;5015145;28;20223;-64
2022/09/24 07:15:22;;;;;;;15.80;10.60;;;10.70;99.90;;;;;;5020922;28;20184;-63
2022/09/24 07:17:47;;;;;;;14.67;10.40;;;10.70;99.90;;;;;;5032696;28;20171;-63
2022/09/24 07:20:13;;;;;;;14.23;10.53;;;10.70;99.90;;;;;;5031485;28;20240;-63
2022/09/24 07:22:41;;;;;;;14.20;10.00;;;10.80;99.90;;;;;;5010945;28;20196;-63
2022/09/24 07:25:10;;;;;;;13.87;10.70;;;10.80;99.90;;;;;;5021523;28;20207;-63
2022/09/24 07:27:37;;;;;;;14.40;10.10;;;10.80;99.90;;;;;;5013775;28;20430;-63
2022/09/24 07:30:07;;;;;;;16.10;10.97;;;10.90;99.90;;;;;;5030198;28;20433;-64
2022/09/24 07:32:33;;;;;;;15.17;11.90;;;10.90;99.90;;;;;;5031456;28;21005;-64
2022/09/24 07:34:59;;;;;;;14.23;11.80;;;11.00;99.90;;;;;;5022920;28;20431;-63
2022/09/24 07:37:25;;;;;;;14.47;11.03;;;11.00;99.90;;;;;;5030065;28;20175;-63
2022/09/24 07:39:50;;;;;;;16.60;12.70;;;11.10;99.90;;;;;;5032272;28;20168;-63
2022/09/24 07:42:16;;;;;;;18.33;13.30;;;11.10;99.90;;;;;;5011283;28;20721;-63
2022/09/24 07:44:42;;;;;;;18.70;13.57;;;11.20;99.90;;;;;;5029496;28;20700;-63
2022/09/24 07:47:08;;;;;;;22.40;14.67;;;11.20;99.90;;;;;;5029046;28;20407;-63
2022/09/24 07:49:34;;;;;;;21.37;14.10;;;11.20;99.90;;;;;;5028813;28;20179;-67
2022/09/24 07:52:00;;;;;;;16.10;12.00;;;11.30;99.90;;;;;;5026380;28;20191;-63
2022/09/24 07:54:26;;;;;;;19.20;12.83;;;11.30;99.90;;;;;;5028449;28;20175;-63
2022/09/24 07:56:51;;;;;;;13.90;11.70;;;11.30;99.90;;;;;;5025483;28;20457;-62
2022/09/24 07:59:19;;;;;;;18.47;11.47;;;11.30;99.90;;;;;;5027450;28;20562;-63
2022/09/24 08:01:44;;;;;;;16.10;11.80;;;11.30;99.90;;;;;;5017945;28;20180;-63
2022/09/24 08:04:10;;;;;;;15.40;12.33;;;11.30;99.90;;;;;;5024771;28;20482;-63
2022/09/24 08:06:36;;;;;;;18.50;12.80;;;11.40;99.90;;;;;;5024018;28;20436;-63
2022/09/24 08:09:03;;;;;;;18.90;13.40;;;11.40;99.90;;;;;;5021198;28;20179;-63
2022/09/24 08:11:28;;;;;;;18.70;14.00;;;11.50;99.90;;;;;;5028727;28;20454;-63
2022/09/24 08:13:55;;;;;;;19.73;13.57;;;11.50;99.90;;;;;;5031811;28;20878;-63
2022/09/24 08:16:20;;;;;;;18.00;12.77;;;11.60;99.90;;;;;;5027084;28;20278;-63
2022/09/24 08:18:46;;;;;;;16.90;13.10;;;11.70;99.90;;;;;;5031412;28;21018;-63
2022/09/24 08:21:14;;;;;;;16.70;12.17;;;11.70;99.90;;;;;;5028059;28;20187;-62
2022/09/24 08:23:43;;;;;;;24.50;12.57;;;11.80;99.90;;;;;;5029277;28;20529;-63
2022/09/24 08:26:10;;;;;;;15.40;11.87;;;11.90;99.90;;;;;;5026463;28;20430;-63
2022/09/24 08:28:37;;;;;;;18.93;13.53;;;11.90;99.90;;;;;;5013781;28;20419;-63
2022/09/24 08:31:07;;;;;;;17.17;13.23;;;12.00;99.90;;;;;;5011999;28;20854;-63
2022/09/24 08:33:35;;;;;;;17.83;13.10;;;12.00;99.90;;;;;;5030968;28;20469;-62
2022/09/24 08:36:02;;;;;;;19.17;13.60;;;12.10;99.90;;;;;;5028805;28;20472;-62
2022/09/24 08:38:28;;;;;;;18.70;14.47;;;12.10;99.90;;;;;;5030390;28;20414;-64
2022/09/24 08:41:12;;;;;;;21.87;15.60;;;12.20;99.90;;;;;;5026215;28;20442;-63
2022/09/24 08:43:43;;;;;;;20.90;14.00;;;12.20;99.90;;;;;;5024070;28;20207;-63
2022/09/24 08:49:39;;;;;;;18.37;13.13;;;12.30;99.90;;;;;;4945860;28;20434;-63
2022/09/24 08:52:38;;;;;;;18.27;12.90;;;12.30;99.90;;;;;;5028543;28;21146;-62
2022/09/24 08:55:20;;;;;;;18.77;13.17;;;12.40;99.90;;;;;;5035928;28;20987;-64
2022/09/24 08:57:59;;;;;;;17.70;13.17;;;12.40;99.90;;;;;;5029381;28;20503;-63
2022/09/24 09:00:29;;;;;;;15.80;13.07;;;12.40;99.90;;;;;;5023945;28;20438;-63
2022/09/24 09:03:13;;;;;;;18.83;13.50;;;12.50;99.90;;;;;;5025540;28;20474;-63
2022/09/24 09:05:52;;;;;;;17.13;13.97;;;12.50;99.90;;;;;;5015228;28;20486;-64
2022/09/24 09:08:35;;;;;;;21.13;14.70;;;12.60;99.90;;;;;;5020794;28;20438;-66
2022/09/24 09:11:04;;;;;;;17.70;11.30;;;12.70;99.90;;;;;;5027023;28;20435;-64
2022/09/24 09:13:37;;;;;;;15.50;10.77;;;12.80;99.90;;;;;;5024807;28;20450;-62
2022/09/24 09:16:18;;;;;;;13.67;11.10;;;12.80;99.90;;;;;;5003046;28;20441;-62
2022/09/24 09:18:48;;;;;;;14.80;11.20;;;12.90;99.90;;;;;;5023049;28;20461;-62
2022/09/24 09:21:25;;;;;;;14.20;10.20;;;12.90;99.90;;;;;;5029118;28;20410;-63
2022/09/24 09:23:54;;;;;;;9.00;7.60;;;13.00;99.90;;;;;;5026307;28;20456;-63
2022/09/24 09:26:20;;;;;;;10.03;7.20;;;13.10;99.90;;;;;;5011835;28;20415;-64
2022/09/24 09:28:47;;;;;;;9.40;6.87;;;13.20;99.90;;;;;;5007800;28;20975;-62
2022/09/24 09:31:58;;;;;;;9.07;7.00;;;13.20;99.90;;;;;;5018197;28;20761;-62
2022/09/24 09:34:42;;;;;;;8.00;5.63;;;13.30;99.90;;;;;;4979276;28;20439;-62
2022/09/24 09:37:26;;;;;;;7.07;5.60;;;13.40;99.90;;;;;;5030506;28;20405;-63
2022/09/24 09:40:12;;;;;;;9.23;5.87;;;13.40;99.90;;;;;;5021125;28;20986;-63
2022/09/24 09:42:43;;;;;;;11.17;6.53;;;13.50;99.90;;;;;;5029830;28;20484;-63
2022/09/24 09:45:27;;;;;;;7.73;6.00;;;13.60;99.90;;;;;;5045012;28;20461;-63
2022/09/24 09:47:55;;;;;;;7.20;5.97;;;13.60;99.90;;;;;;5019930;28;20434;-64
2022/09/24 09:50:30;;;;;;;8.47;6.17;;;13.60;99.90;;;;;;5023064;28;20427;-63
2022/09/24 09:52:55;;;;;;;6.40;4.97;;;13.60;99.90;;;;;;5023278;28;20445;-63
2022/09/24 09:55:23;;;;;;;5.00;4.20;;;13.50;99.90;;;;;;5018832;28;21180;-63
2022/09/24 09:57:50;;;;;;;3.53;3.23;;;13.50;99.90;;;;;;5023417;28;20229;-64
2022/09/24 10:00:35;;;;;;;4.67;4.20;;;13.50;99.90;;;;;;5021821;28;20430;-63
2022/09/24 10:03:02;;;;;;;3.73;3.43;;;13.50;99.90;;;;;;5016411;28;20521;-63
2022/09/24 10:05:28;;;;;;;4.63;4.17;;;13.50;99.90;;;;;;5023265;28;20462;-63
2022/09/24 10:07:58;;;;;;;8.23;3.80;;;13.50;99.90;;;;;;5020062;28;20960;-63
2022/09/24 10:10:26;;;;;;;6.90;4.00;;;13.50;99.90;;;;;;5023549;28;20430;-64
2022/09/24 10:13:04;;;;;;;5.60;3.93;;;13.60;99.90;;;;;;5022468;28;20446;-63
2022/09/24 10:15:30;;;;;;;3.47;3.17;;;13.80;99.90;;;;;;5020624;28;20431;-63
2022/09/24 10:17:59;;;;;;;3.77;3.37;;;13.90;99.90;;;;;;5020249;28;20424;-64
2022/09/24 10:20:28;;;;;;;9.53;3.73;;;14.00;99.90;;;;;;5019745;28;20203;-64
2022/09/24 10:23:05;;;;;;;4.83;4.27;;;14.20;99.90;;;;;;5023207;28;20454;-63
2022/09/24 10:25:35;;;;;;;5.37;3.90;;;14.30;99.90;;;;;;5020547;28;21255;-63
2022/09/24 10:30:53;;;;;;;4.73;4.20;;;14.60;99.90;;;;;;5025133;28;20457;-62
2022/09/24 10:33:19;;;;;;;4.17;3.57;;;14.80;99.90;;;;;;5002411;28;20546;-64
2022/09/24 10:35:44;;;;;;;6.27;4.00;;;15.00;99.90;;;;;;5021865;28;20458;-62
2022/09/24 10:38:20;;;;;;;4.17;3.87;;;15.10;99.90;;;;;;5020079;28;20176;-63
2022/09/24 10:40:47;;;;;;;4.90;3.43;;;15.20;99.90;;;;;;5002794;28;20218;-63
2022/09/24 10:43:31;;;;;;;3.53;3.23;;;15.20;99.90;;;;;;5021230;28;20458;-63
2022/09/24 10:46:20;;;;;;;3.60;3.30;;;15.10;99.90;;;;;;5019510;28;20997;-63
2022/09/24 10:48:55;;;;;;;3.47;3.10;;;15.10;99.90;;;;;;5018964;28;20441;-63
2022/09/24 10:51:35;;;;;;;3.30;3.00;;;15.00;99.90;;;;;;5020710;28;20442;-63
2022/09/24 10:54:22;;;;;;;3.33;2.80;;;15.00;99.90;;;;;;5023586;28;20434;-63
2022/09/24 10:56:52;;;;;;;6.73;3.70;;;15.00;99.90;;;;;;5017271;28;20442;-63
2022/09/24 10:59:35;;;;;;;3.13;2.70;;;15.00;99.90;;;;;;5006144;28;20439;-63
2022/09/24 11:02:27;;;;;;;4.53;3.30;;;15.10;99.90;;;;;;5023431;28;23198;-63
2022/09/24 11:04:56;;;;;;;3.10;2.80;;;15.10;99.90;;;;;;4975732;28;20551;-63
2022/09/24 11:07:51;;;;;;;3.37;3.00;;;15.20;99.90;;;;;;5020121;28;20520;-63
2022/09/24 11:10:22;;;;;;;3.63;2.97;;;15.30;99.90;;;;;;5018843;28;20442;-63
2022/09/24 11:13:00;;;;;;;3.90;3.20;;;15.40;99.90;;;;;;5018066;28;20430;-65
2022/09/24 11:15:29;;;;;;;3.43;3.00;;;15.50;99.90;;;;;;5025019;28;20473;-63
2022/09/24 11:18:03;;;;;;;4.97;3.00;;;15.50;99.90;;;;;;5022067;28;20437;-63
2022/09/24 11:20:38;;;;;;;3.10;2.80;;;15.40;99.90;;;;;;5022845;28;20407;-64
2022/09/24 11:23:22;;;;;;;3.17;2.87;;;15.40;99.90;;;;;;5021324;28;20463;-63
2022/09/24 11:26:29;;;;;;;2.80;2.60;;;15.40;99.90;;;;;;5021188;28;20473;-62
2022/09/24 11:29:06;;;;;;;7.73;3.63;;;15.40;99.90;;;;;;5027447;28;21225;-64
2022/09/24 11:31:48;;;;;;;3.43;3.13;;;15.40;99.90;;;;;;5023891;28;20435;-63
2022/09/24 11:34:37;;;;;;;3.67;2.83;;;15.40;99.90;;;;;;5022990;28;20442;-63
2022/09/24 11:37:41;;;;;;;3.73;2.90;;;15.30;99.90;;;;;;5022651;28;20873;-63
2022/09/24 11:40:28;;;;;;;3.20;2.90;;;15.30;99.90;;;;;;5025847;28;20442;-65
2022/09/24 11:43:14;;;;;;;3.93;2.93;;;15.30;99.90;;;;;;5022242;28;20461;-63
2022/09/24 11:45:40;;;;;;;3.37;3.07;;;15.20;99.90;;;;;;5023486;28;20887;-63
2022/09/24 11:48:34;;;;;;;4.13;3.10;;;15.20;99.90;;;;;;5022972;28;20477;-64
2022/09/24 11:50:59;;;;;;;3.60;3.30;;;15.10;99.90;;;;;;5024329;28;20276;-64
2022/09/24 11:53:43;;;;;;;5.00;3.30;;;15.10;99.90;;;;;;5028071;28;21000;-62
2022/09/24 11:56:24;;;;;;;3.30;3.00;;;15.00;99.90;;;;;;5022692;28;20226;-64
2022/09/24 11:59:22;;;;;;;3.30;3.00;;;15.00;99.90;;;;;;5022230;28;20437;-62
2022/09/24 12:01:59;;;;;;;4.20;3.73;;;14.90;99.90;;;;;;5012986;28;20453;-62
2022/09/24 12:04:45;;;;;;;6.03;3.87;;;14.90;99.90;;;;;;5026290;28;20458;-63
2022/09/24 12:07:41;;;;;;;6.33;4.30;;;14.90;99.90;;;;;;5023727;28;20435;-63
2022/09/24 12:10:25;;;;;;;5.97;4.43;;;14.80;99.90;;;;;;5019645;28;20447;-63
2022/09/24 12:12:56;;;;;;;5.60;4.10;;;14.80;99.90;;;;;;5022674;28;20515;-64
2022/09/24 12:15:40;;;;;;;5.20;4.23;;;14.70;99.90;;;;;;5023012;28;20454;-63
2022/09/24 12:18:23;;;;;;;8.87;4.70;;;14.70;99.90;;;;;;5022130;28;20419;-63
2022/09/24 12:20:55;;;;;;;4.80;4.20;;;14.60;99.90;;;;;;5006479;28;21114;-64
2022/09/24 12:23:26;;;;;;;4.60;4.10;;;14.60;99.90;;;;;;5023969;28;20898;-63
2022/09/24 12:25:54;;;;;;;6.23;5.03;;;14.50;99.90;;;;;;5001726;28;20459;-63
2022/09/24 12:34:18;;;;;;;6.03;5.00;;;14.50;99.90;;;;;;5022271;28;20476;-63
2022/09/24 12:37:02;;;;;;;5.70;5.10;;;14.50;99.90;;;;;;5003735;28;20782;-63
2022/09/24 12:39:36;;;;;;;6.67;5.10;;;14.50;99.90;;;;;;5023286;28;20472;-64
2022/09/24 12:42:06;;;;;;;5.93;4.83;;;14.50;99.90;;;;;;5024113;28;20447;-63
2022/09/24 12:44:47;;;;;;;9.10;5.30;;;14.50;99.90;;;;;;5021421;28;20463;-64
2022/09/24 12:47:22;;;;;;;9.00;5.60;;;14.50;99.90;;;;;;5029333;28;20407;-63
2022/09/24 12:49:55;;;;;;;6.60;5.57;;;14.50;99.90;;;;;;5023370;28;20962;-64
2022/09/24 12:52:36;;;;;;;5.90;4.90;;;14.50;99.90;;;;;;5021743;28;20525;-64
2022/09/24 12:55:03;;;;;;;6.87;5.80;;;14.60;99.90;;;;;;5020632;28;20459;-63
2022/09/24 12:57:35;;;;;;;6.93;4.80;;;14.60;99.90;;;;;;5023188;28;20943;-64
2022/09/24 13:00:04;;;;;;;5.77;4.83;;;14.70;99.90;;;;;;5022672;28;20518;-63
2022/09/24 13:02:43;;;;;;;6.23;5.00;;;14.70;99.90;;;;;;5021676;28;20427;-63
2022/09/24 13:05:32;;;;;;;6.20;5.10;;;14.70;99.90;;;;;;5023348;28;20510;-63
2022/09/24 13:08:07;;;;;;;5.73;4.90;;;14.70;99.90;;;;;;5006200;28;20427;-64
2022/09/24 13:10:35;;;;;;;6.10;5.23;;;14.70;99.90;;;;;;5021272;28;21083;-64
2022/09/24 13:13:13;;;;;;;6.47;5.10;;;14.70;99.90;;;;;;5023309;28;20535;-63
2022/09/24 13:15:41;;;;;;;8.67;5.77;;;14.70;99.90;;;;;;5021727;28;20484;-64
2022/09/24 13:18:21;;;;;;;6.53;5.30;;;14.60;99.90;;;;;;5022338;28;20781;-63